createdAt,value
2022-08-04T00:01:45.788Z,20.60
2022-08-04T00:04:53.262Z,20.60
2022-08-04T00:07:44.312Z,20.50
2022-08-04T00:10:16.406Z,20.50
2022-08-04T00:12:47.107Z,20.50
2022-08-04T00:15:16.954Z,20.50
2022-08-04T00:17:55.512Z,20.40
2022-08-04T00:20:29.094Z,20.40
2022-08-04T00:22:57.296Z,20.40
2022-08-04T00:25:25.489Z,20.30
2022-08-04T00:27:53.593Z,20.30
2022-08-04T00:30:21.117Z,20.30
2022-08-04T00:32:48.548Z,20.20
2022-08-04T00:35:16.250Z,20.20
2022-08-04T00:37:47.081Z,20.10
2022-08-04T00:40:20.839Z,20.10
2022-08-04T00:43:11.514Z,20.00
2022-08-04T00:46:11.087Z,20.00
2022-08-04T00:48:45.229Z,20.00
2022-08-04T00:51:37.192Z,19.90
2022-08-04T00:54:31.360Z,19.90
2022-08-04T00:57:33.469Z,19.90
2022-08-04T01:00:13.209Z,19.90
2022-08-04T01:03:10.811Z,19.90
2022-08-04T01:05:53.360Z,19.80
2022-08-04T01:08:41.438Z,19.80
2022-08-04T01:11:08.432Z,19.80
2022-08-04T01:13:47.287Z,19.80
2022-08-04T01:16:17.874Z,19.70
2022-08-04T01:18:53.653Z,19.70
2022-08-04T01:21:29.650Z,19.70
2022-08-04T01:24:18.347Z,19.70
2022-08-04T01:27:06.275Z,19.70
2022-08-04T01:29:55.727Z,19.70
2022-08-04T01:32:40.862Z,19.70
2022-08-04T01:35:22.114Z,19.60
2022-08-04T01:38:21.517Z,19.60
2022-08-04T01:40:53.841Z,19.60
2022-08-04T01:43:21.585Z,19.50
2022-08-04T01:45:51.422Z,19.50
2022-08-04T01:48:27.400Z,19.50
2022-08-04T01:51:02.911Z,19.50
2022-08-04T01:53:32.245Z,19.40
2022-08-04T01:56:01.124Z,19.40
2022-08-04T01:58:31.147Z,19.40
2022-08-04T02:01:08.643Z,19.40
2022-08-04T02:04:20.593Z,19.40
2022-08-04T02:06:34.792Z,19.40
2022-08-04T02:09:55.020Z,19.40
2022-08-04T02:12:52.514Z,19.40
2022-08-04T02:15:45.631Z,19.30
2022-08-04T02:18:27.917Z,19.30
2022-08-04T02:21:00.445Z,19.30
2022-08-04T02:23:41.753Z,19.20
2022-08-04T02:26:22.673Z,19.20
2022-08-04T02:29:27.291Z,19.20
2022-08-04T02:32:04.954Z,19.10
2022-08-04T02:35:07.990Z,19.10
2022-08-04T02:37:35.594Z,19.00
2022-08-04T02:40:06.171Z,19.00
2022-08-04T02:42:33.996Z,19.00
2022-08-04T02:45:01.842Z,19.00
2022-08-04T02:48:30.522Z,19.00
2022-08-04T02:50:28.810Z,19.00
2022-08-04T02:53:00.416Z,19.00
2022-08-04T02:55:29.498Z,19.00
2022-08-04T02:57:59.346Z,19.00
2022-08-04T03:00:26.950Z,19.00
2022-08-04T03:03:27.449Z,19.10
2022-08-04T03:06:11.436Z,19.10
2022-08-04T03:08:54.011Z,19.10
2022-08-04T03:11:35.638Z,19.10
2022-08-04T03:14:25.134Z,19.10
2022-08-04T03:17:23.699Z,19.10
2022-08-04T03:20:12.301Z,19.00
2022-08-04T03:23:13.882Z,19.00
2022-08-04T03:25:59.868Z,19.00
2022-08-04T03:28:29.777Z,19.00
2022-08-04T03:31:11.102Z,18.90
2022-08-04T03:34:18.907Z,18.90
2022-08-04T03:37:04.499Z,18.90
2022-08-04T03:39:55.759Z,18.90
2022-08-04T03:42:25.543Z,18.90
2022-08-04T03:45:24.075Z,18.80
2022-08-04T03:47:57.224Z,18.80
2022-08-04T03:50:39.554Z,18.80
2022-08-04T03:53:11.245Z,18.70
2022-08-04T03:55:56.027Z,18.70
2022-08-04T03:59:07.545Z,18.60
2022-08-04T04:02:09.049Z,18.60
2022-08-04T04:04:55.097Z,18.60
2022-08-04T04:07:59.637Z,18.60
2022-08-04T04:10:50.003Z,18.50
2022-08-04T04:13:33.815Z,18.50
2022-08-04T04:16:17.557Z,18.50
2022-08-04T04:19:12.640Z,18.50
2022-08-04T04:21:58.386Z,18.40
2022-08-04T04:25:02.872Z,18.40
2022-08-04T04:27:51.077Z,18.50
2022-08-04T04:30:53.586Z,18.50
2022-08-04T04:33:38.770Z,18.50
2022-08-04T04:36:14.341Z,18.60
2022-08-04T04:39:02.966Z,18.60
2022-08-04T04:42:10.060Z,18.60
2022-08-04T04:45:06.027Z,18.60
2022-08-04T04:48:10.659Z,18.70
2022-08-04T04:50:43.942Z,18.70
2022-08-04T04:53:38.287Z,18.70
2022-08-04T04:57:06.816Z,18.70
2022-08-04T04:59:38.009Z,18.70
2022-08-04T05:02:25.637Z,18.80
2022-08-04T05:05:10.766Z,18.80
2022-08-04T05:08:43.225Z,18.80
2022-08-04T05:11:09.963Z,18.90
2022-08-04T05:14:38.057Z,18.90
2022-08-04T05:16:37.238Z,19.00
2022-08-04T05:19:18.685Z,19.10
2022-08-04T05:21:47.464Z,19.10
2022-08-04T05:24:21.319Z,19.10
2022-08-04T05:26:55.665Z,19.20
2022-08-04T05:29:35.179Z,19.30
2022-08-04T05:32:08.833Z,19.30
2022-08-04T05:34:43.744Z,19.30
2022-08-04T05:37:17.271Z,19.40
2022-08-04T05:39:49.716Z,19.40
2022-08-04T05:42:16.778Z,19.40
2022-08-04T05:44:50.454Z,19.50
2022-08-04T05:47:21.448Z,19.60
2022-08-04T05:50:01.090Z,19.60
2022-08-04T05:52:34.572Z,19.70
2022-08-04T05:55:02.751Z,19.70
2022-08-04T05:57:30.377Z,19.80
2022-08-04T06:00:00.206Z,19.90
2022-08-04T06:02:29.045Z,20.00
2022-08-04T06:04:57.838Z,20.10
2022-08-04T06:07:26.522Z,20.20
2022-08-04T06:09:54.255Z,20.30
2022-08-04T06:12:26.829Z,20.50
2022-08-04T06:14:59.322Z,20.60
2022-08-04T06:19:56.613Z,20.80
2022-08-04T06:20:23.432Z,20.90
2022-08-04T06:22:56.183Z,21.00
2022-08-04T06:25:28.201Z,21.20
2022-08-04T06:27:55.969Z,21.30
2022-08-04T06:30:26.594Z,21.40
2022-08-04T06:33:04.372Z,21.50
2022-08-04T06:35:33.567Z,21.70
2022-08-04T06:38:02.935Z,21.80
2022-08-04T06:40:33.444Z,21.90
2022-08-04T06:43:06.542Z,22.00
2022-08-04T06:45:36.966Z,22.20
2022-08-04T06:48:06.503Z,22.20
2022-08-04T06:51:30.807Z,22.30
2022-08-04T06:53:27.145Z,22.40
2022-08-04T06:55:56.260Z,22.60
2022-08-04T06:58:24.765Z,22.70
2022-08-04T07:00:52.705Z,22.90
2022-08-04T07:03:21.559Z,23.00
2022-08-04T07:05:49.521Z,23.20
2022-08-04T07:08:17.026Z,23.40
2022-08-04T07:10:45.362Z,23.50
2022-08-04T07:13:13.472Z,23.60
2022-08-04T07:15:45.751Z,23.70
2022-08-04T07:18:12.748Z,23.90
2022-08-04T07:20:43.902Z,24.00
2022-08-04T07:23:17.141Z,24.10
2022-08-04T07:26:11.266Z,24.30
2022-08-04T07:28:31.886Z,24.50
2022-08-04T07:30:58.987Z,24.80
2022-08-04T07:33:26.332Z,25.00
2022-08-04T07:36:09.440Z,25.30
2022-08-04T07:38:48.194Z,25.60
2022-08-04T07:41:40.469Z,25.70
2022-08-04T07:44:08.415Z,25.90
2022-08-04T07:46:36.684Z,26.20
2022-08-04T07:49:04.775Z,26.40
2022-08-04T07:51:32.862Z,26.60
2022-08-04T07:54:00.857Z,26.60
2022-08-04T07:56:28.401Z,26.80
2022-08-04T07:58:56.276Z,26.90
2022-08-04T08:01:24.794Z,27.10
2022-08-04T08:03:54.340Z,27.20
2022-08-04T08:06:33.008Z,27.40
2022-08-04T08:09:13.179Z,27.50
2022-08-04T08:12:38.495Z,27.60
2022-08-04T08:14:36.657Z,27.70
2022-08-04T08:17:04.941Z,27.80
2022-08-04T08:19:33.078Z,27.90
2022-08-04T08:22:01.598Z,28.00
2022-08-04T08:24:36.062Z,28.10
2022-08-04T08:27:04.665Z,28.10
2022-08-04T08:29:34.277Z,28.20
2022-08-04T08:32:07.754Z,28.20
2022-08-04T08:34:37.492Z,28.30
2022-08-04T08:37:30.532Z,28.40
2022-08-04T08:40:40.907Z,28.50
2022-08-04T08:44:05.823Z,28.70
2022-08-04T08:47:04.514Z,28.80
2022-08-04T08:50:21.991Z,28.90
2022-08-04T08:53:01.085Z,29.10
2022-08-04T08:55:40.552Z,29.20
2022-08-04T08:58:38.438Z,29.40
2022-08-04T09:01:24.246Z,29.50
2022-08-04T09:04:23.925Z,29.70
2022-08-04T09:07:26.213Z,29.90
2022-08-04T09:10:33.494Z,30.20
2022-08-04T09:13:15.965Z,30.50
2022-08-04T09:16:04.992Z,30.90
2022-08-04T09:18:51.777Z,31.20
2022-08-04T09:21:43.993Z,31.30
2022-08-04T09:24:36.094Z,31.40
2022-08-04T09:27:16.686Z,31.60
2022-08-04T09:30:01.939Z,31.80
2022-08-04T09:33:16.320Z,31.80
2022-08-04T09:36:26.477Z,31.90
2022-08-04T09:39:26.345Z,32.00
2022-08-04T09:42:46.473Z,32.10
2022-08-04T09:45:43.167Z,32.30
2022-08-04T09:48:23.544Z,32.40
2022-08-04T09:50:58.125Z,32.50
2022-08-04T09:53:59.556Z,32.80
2022-08-04T09:56:40.333Z,33.10
2022-08-04T09:59:25.565Z,33.30
2022-08-04T10:01:58.857Z,33.40
2022-08-04T10:04:31.034Z,33.60
2022-08-04T10:07:02.454Z,33.70
2022-08-04T10:09:50.648Z,33.70
2022-08-04T10:12:31.821Z,33.70
2022-08-04T10:15:01.510Z,33.70
2022-08-04T10:17:51.971Z,33.80
2022-08-04T10:21:04.650Z,33.80
2022-08-04T10:23:55.133Z,34.00
2022-08-04T10:26:26.329Z,34.10
2022-08-04T10:29:33.753Z,34.10
2022-08-04T10:32:28.071Z,34.20
2022-08-04T10:34:54.955Z,34.30
2022-08-04T10:38:00.006Z,34.50
2022-08-04T10:40:36.631Z,34.60
2022-08-04T10:43:31.686Z,34.60
2022-08-04T10:46:02.184Z,34.90
2022-08-04T10:49:06.601Z,35.00
2022-08-04T10:51:57.637Z,35.10
2022-08-04T10:54:57.415Z,35.20
2022-08-04T10:57:36.866Z,35.30
2022-08-04T11:00:25.492Z,35.40
2022-08-04T11:03:05.582Z,35.50
2022-08-04T11:05:43.817Z,35.40
2022-08-04T11:08:26.519Z,35.60
2022-08-04T11:11:01.143Z,35.40
2022-08-04T11:13:46.793Z,35.20
2022-08-04T11:16:21.104Z,35.10
2022-08-04T11:19:21.511Z,35.10
2022-08-04T11:22:14.644Z,35.10
2022-08-04T11:25:00.234Z,35.00
2022-08-04T11:27:55.395Z,35.00
2022-08-04T11:30:25.400Z,35.20
2022-08-04T11:33:17.949Z,35.30
2022-08-04T11:36:02.049Z,35.40
2022-08-04T11:38:51.883Z,35.30
2022-08-04T11:41:42.019Z,35.20
2022-08-04T11:44:17.126Z,35.20
2022-08-04T11:46:50.534Z,35.30
2022-08-04T11:49:56.485Z,35.50
2022-08-04T11:52:23.567Z,35.70
2022-08-04T11:54:52.650Z,35.60
2022-08-04T11:57:25.707Z,35.50
2022-08-04T12:00:10.340Z,35.40
2022-08-04T12:03:06.478Z,35.30
2022-08-04T12:05:58.985Z,35.10
2022-08-04T12:08:40.949Z,35.00
2022-08-04T12:11:24.991Z,35.10
2022-08-04T12:14:18.295Z,35.00
2022-08-04T12:17:01.821Z,35.00
2022-08-04T12:20:03.999Z,35.00
2022-08-04T12:22:40.887Z,35.10
2022-08-04T12:25:13.714Z,35.30
2022-08-04T12:28:05.178Z,35.50
2022-08-04T12:31:00.428Z,35.60
2022-08-04T12:34:05.145Z,35.60
2022-08-04T12:36:42.379Z,35.50
2022-08-04T12:39:15.644Z,35.10
2022-08-04T12:41:52.048Z,34.70
2022-08-04T12:44:36.565Z,34.50
2022-08-04T12:47:26.466Z,34.40
2022-08-04T12:50:02.076Z,34.40
2022-08-04T12:55:31.620Z,34.00
2022-08-04T12:58:01.579Z,33.80
2022-08-04T13:00:40.717Z,33.60
2022-08-04T13:03:15.551Z,33.40
2022-08-04T13:05:43.891Z,33.30
2022-08-04T13:08:12.432Z,33.20
2022-08-04T13:10:47.945Z,33.20
2022-08-04T13:13:24.520Z,33.40
2022-08-04T13:16:02.705Z,33.40
2022-08-04T13:18:33.346Z,33.40
2022-08-04T13:21:23.308Z,33.40
2022-08-04T13:24:22.786Z,33.50
2022-08-04T13:30:00.083Z,33.40
2022-08-04T13:30:25.135Z,33.40
2022-08-04T13:32:29.920Z,33.40
2022-08-04T13:35:00.276Z,33.30
2022-08-04T13:37:35.118Z,33.50
2022-08-04T13:40:09.129Z,33.70
2022-08-04T13:42:37.028Z,33.80
2022-08-04T13:45:07.756Z,33.80
2022-08-04T13:47:38.657Z,33.80
2022-08-04T13:50:30.214Z,33.80
2022-08-04T13:52:59.295Z,33.90
2022-08-04T13:55:32.634Z,33.90
2022-08-04T13:58:02.798Z,33.90
2022-08-04T14:00:44.498Z,33.70
2022-08-04T14:03:24.083Z,33.50
2022-08-04T14:06:15.220Z,33.30
2022-08-04T14:08:55.467Z,33.20
2022-08-04T14:12:06.086Z,33.20
2022-08-04T14:14:29.179Z,33.10
2022-08-04T14:17:23.671Z,33.20
2022-08-04T14:20:01.788Z,33.30
2022-08-04T14:22:28.893Z,33.10
2022-08-04T14:24:57.750Z,33.10
2022-08-04T14:27:25.673Z,33.20
2022-08-04T14:29:52.807Z,33.40
2022-08-04T14:32:22.836Z,33.60
2022-08-04T14:34:53.005Z,33.80
2022-08-04T14:37:22.431Z,34.10
2022-08-04T14:40:18.909Z,34.00
2022-08-04T14:42:54.771Z,33.90
2022-08-04T14:45:54.199Z,33.80
2022-08-04T14:48:21.879Z,33.70
2022-08-04T14:50:50.243Z,33.70
2022-08-04T14:53:23.114Z,33.50
2022-08-04T14:55:52.412Z,33.30
2022-08-04T14:58:35.055Z,33.00
2022-08-04T15:01:09.801Z,32.90
2022-08-04T15:03:49.981Z,32.70
2022-08-04T15:06:27.032Z,32.60
2022-08-04T15:08:56.903Z,32.60
2022-08-04T15:11:24.896Z,32.40
2022-08-04T15:13:53.056Z,32.10
2022-08-04T15:16:21.843Z,31.90
2022-08-04T15:18:49.610Z,31.90
2022-08-04T15:21:17.568Z,31.70
2022-08-04T15:23:44.666Z,31.60
2022-08-04T15:26:16.847Z,31.60
2022-08-04T15:28:50.355Z,31.50
2022-08-04T15:32:07.044Z,31.40
2022-08-04T15:34:08.696Z,31.40
2022-08-04T15:36:56.489Z,31.30
2022-08-04T15:39:39.952Z,31.10
2022-08-04T15:42:26.133Z,31.00
2022-08-04T15:45:11.495Z,30.90
2022-08-04T15:47:39.384Z,30.80
2022-08-04T15:50:11.888Z,30.60
2022-08-04T15:53:09.986Z,30.60
2022-08-04T15:55:43.986Z,30.60
2022-08-04T15:58:16.219Z,30.50
2022-08-04T16:00:49.379Z,30.50
2022-08-04T16:03:53.146Z,30.50
2022-08-04T16:06:23.944Z,30.50
2022-08-04T16:09:01.212Z,30.50
2022-08-04T16:11:36.773Z,30.50
2022-08-04T16:14:07.558Z,30.40
2022-08-04T16:16:38.440Z,30.40
2022-08-04T16:19:08.346Z,30.40
2022-08-04T16:21:46.715Z,30.40
2022-08-04T16:24:19.685Z,30.30
2022-08-04T16:26:54.798Z,30.20
2022-08-04T16:29:23.295Z,30.20
2022-08-04T16:32:05.970Z,30.10
2022-08-04T16:34:49.683Z,30.10
2022-08-04T16:37:19.385Z,30.00
2022-08-04T16:39:49.909Z,29.90
2022-08-04T16:42:37.046Z,29.80
2022-08-04T16:45:12.703Z,29.60
2022-08-04T16:47:48.486Z,29.60
2022-08-04T16:50:17.344Z,29.50
2022-08-04T16:52:52.917Z,29.30
2022-08-04T16:55:27.930Z,29.30
2022-08-04T16:57:57.666Z,29.20
2022-08-04T17:00:36.899Z,29.10
2022-08-04T17:03:08.264Z,29.00
2022-08-04T17:05:39.668Z,29.00
2022-08-04T17:10:56.737Z,29.20
2022-08-04T17:14:02.501Z,29.40
2022-08-04T17:16:37.419Z,29.60
2022-08-04T17:19:05.870Z,29.80
2022-08-04T17:21:35.746Z,30.10
2022-08-04T17:24:13.130Z,30.10
2022-08-04T17:26:53.555Z,30.20
2022-08-04T17:29:44.548Z,30.20
2022-08-04T17:32:20.783Z,30.20
2022-08-04T17:35:00.463Z,30.10
2022-08-04T17:37:40.857Z,30.00
2022-08-04T17:40:25.471Z,29.80
2022-08-04T17:44:04.145Z,29.80
2022-08-04T17:46:28.844Z,29.70
2022-08-04T17:49:19.752Z,29.80
2022-08-04T17:52:04.525Z,29.70
2022-08-04T17:54:39.721Z,29.70
2022-08-04T17:57:21.607Z,29.60
2022-08-04T17:59:56.381Z,29.50
2022-08-04T18:02:32.953Z,29.30
2022-08-04T18:05:07.534Z,29.30
2022-08-04T18:08:40.081Z,29.20
2022-08-04T18:10:56.997Z,29.10
2022-08-04T18:13:26.063Z,28.90
2022-08-04T18:16:14.547Z,28.70
2022-08-04T18:19:11.887Z,28.70
2022-08-04T18:21:46.659Z,28.60
2022-08-04T18:24:33.895Z,28.50
2022-08-04T18:27:02.433Z,28.40
2022-08-04T18:29:34.348Z,28.30
2022-08-04T18:32:10.355Z,28.20
2022-08-04T18:34:40.818Z,28.10
2022-08-04T18:38:03.278Z,28.00
2022-08-04T18:40:29.987Z,27.90
2022-08-04T18:43:00.441Z,27.70
2022-08-04T18:45:34.563Z,27.60
2022-08-04T18:48:14.073Z,27.50
2022-08-04T18:51:09.777Z,27.40
2022-08-04T18:53:35.280Z,27.30
2022-08-04T18:56:20.089Z,27.10
2022-08-04T18:58:53.468Z,27.00
2022-08-04T19:01:21.040Z,26.80
2022-08-04T19:03:57.839Z,26.70
2022-08-04T19:06:26.083Z,26.60
2022-08-04T19:08:54.605Z,26.50
2022-08-04T19:11:37.921Z,26.40
2022-08-04T19:14:13.164Z,26.30
2022-08-04T19:16:41.740Z,26.20
2022-08-04T19:19:13.845Z,26.10
2022-08-04T19:22:00.350Z,26.00
2022-08-04T19:24:34.214Z,25.90
2022-08-04T19:27:06.859Z,25.80
2022-08-04T19:29:40.748Z,25.70
2022-08-04T19:32:14.000Z,25.70
2022-08-04T19:34:42.633Z,25.60
2022-08-04T19:37:54.356Z,25.60
2022-08-04T19:40:02.951Z,25.40
2022-08-04T19:42:31.922Z,25.40
2022-08-04T19:44:58.894Z,25.30
2022-08-04T19:48:17.145Z,25.20
2022-08-04T19:50:14.306Z,25.20
2022-08-04T19:52:49.212Z,25.10
2022-08-04T19:55:37.765Z,25.00
2022-08-04T19:58:08.408Z,24.90
2022-08-04T20:00:37.209Z,24.90
2022-08-04T20:03:09.915Z,24.80
2022-08-04T20:05:53.826Z,24.70
2022-08-04T20:08:26.642Z,24.70
2022-08-04T20:10:55.246Z,24.60
2022-08-04T20:13:25.233Z,24.50
2022-08-04T20:15:57.636Z,24.50
2022-08-04T20:18:35.580Z,24.40
2022-08-04T20:21:18.728Z,24.30
2022-08-04T20:23:48.643Z,24.30
2022-08-04T20:26:17.391Z,24.20
2022-08-04T20:28:45.802Z,24.10
2022-08-04T20:31:18.149Z,24.00
2022-08-04T20:33:49.271Z,24.00
2022-08-04T20:36:21.248Z,23.90
2022-08-04T20:38:52.801Z,23.90
2022-08-04T20:41:23.263Z,23.80
2022-08-04T20:43:50.819Z,23.70
2022-08-04T20:46:25.553Z,23.70
2022-08-04T20:48:57.300Z,23.60
2022-08-04T20:51:32.134Z,23.60
2022-08-04T20:54:02.079Z,23.50
2022-08-04T20:56:30.899Z,23.50
2022-08-04T20:58:59.831Z,23.40
2022-08-04T21:01:29.906Z,23.40
2022-08-04T21:04:27.393Z,23.30
2022-08-04T21:09:50.644Z,23.20
2022-08-04T21:12:27.695Z,23.20
2022-08-04T21:15:01.368Z,23.10
2022-08-04T21:17:58.898Z,23.10
2022-08-04T21:20:27.603Z,23.00
2022-08-04T21:22:55.612Z,22.90
2022-08-04T21:25:26.656Z,22.90
2022-08-04T21:27:53.690Z,22.90
2022-08-04T21:30:25.852Z,22.90
2022-08-04T21:35:41.117Z,22.80
2022-08-04T21:38:16.441Z,22.80
2022-08-04T21:40:55.150Z,22.80
2022-08-04T21:43:23.483Z,22.80
2022-08-04T21:45:55.106Z,22.80
2022-08-04T21:48:27.480Z,22.80
2022-08-04T21:50:55.075Z,22.80
2022-08-04T21:53:22.654Z,22.80
2022-08-04T21:56:04.823Z,22.80
2022-08-04T21:58:37.725Z,22.80
2022-08-04T22:01:05.847Z,22.70
2022-08-04T22:03:52.890Z,22.70
2022-08-04T22:06:28.457Z,22.60
2022-08-04T22:08:57.180Z,22.70
2022-08-04T22:11:25.979Z,22.60
2022-08-04T22:14:10.762Z,22.60
2022-08-04T22:16:39.857Z,22.60
2022-08-04T22:19:08.843Z,22.50
2022-08-04T22:21:39.180Z,22.50
2022-08-04T22:24:14.408Z,22.50
2022-08-04T22:26:42.206Z,22.40
2022-08-04T22:29:14.314Z,22.40
2022-08-04T22:31:56.240Z,22.30
2022-08-04T22:34:25.064Z,22.30
2022-08-04T22:36:52.530Z,22.20
2022-08-04T22:39:23.461Z,22.20
2022-08-04T22:42:03.213Z,22.10
2022-08-04T22:44:33.305Z,22.10
2022-08-04T22:47:01.004Z,22.10
2022-08-04T22:49:31.415Z,22.10
2022-08-04T22:51:58.764Z,22.00
2022-08-04T22:54:26.052Z,22.00
2022-08-04T22:56:56.944Z,22.00
2022-08-04T22:59:24.361Z,22.00
2022-08-04T23:01:58.875Z,22.00
2022-08-04T23:04:30.380Z,21.90
2022-08-04T23:06:57.704Z,22.00
2022-08-04T23:09:49.176Z,21.90
2022-08-04T23:12:24.426Z,21.90
2022-08-04T23:14:54.893Z,21.90
2022-08-04T23:17:24.241Z,21.90
2022-08-04T23:19:57.653Z,21.90
2022-08-04T23:22:41.091Z,21.90
2022-08-04T23:25:15.377Z,21.80
2022-08-04T23:27:50.677Z,21.80
2022-08-04T23:30:21.796Z,21.80
2022-08-04T23:32:55.072Z,21.80
2022-08-04T23:35:22.533Z,21.80
2022-08-04T23:37:57.786Z,21.80
2022-08-04T23:40:34.159Z,21.80
2022-08-04T23:43:16.909Z,21.70
2022-08-04T23:46:07.115Z,21.60
2022-08-04T23:48:39.452Z,21.50
2022-08-04T23:51:14.149Z,21.40
2022-08-04T23:54:02.483Z,21.40
2022-08-04T23:56:31.889Z,21.40
2022-08-04T23:59:00.072Z,21.30
